createdAt,value
2022-10-02T00:00:08.910Z,2.20
2022-10-02T00:03:25.198Z,2.30
2022-10-02T00:06:04.928Z,2.30
2022-10-02T00:08:39.386Z,2.50
2022-10-02T00:11:32.758Z,2.00
2022-10-02T00:14:05.736Z,2.10
2022-10-02T00:16:43.167Z,2.00
2022-10-02T00:19:17.330Z,1.50
2022-10-02T00:22:03.700Z,1.20
2022-10-02T00:24:44.157Z,1.00
2022-10-02T00:27:38.403Z,1.20
2022-10-02T00:30:11.637Z,1.00
2022-10-02T00:33:04.601Z,1.00
2022-10-02T00:35:36.873Z,1.20
2022-10-02T00:38:36.610Z,1.00
2022-10-02T00:41:32.081Z,1.10
2022-10-02T00:44:19.972Z,1.20
2022-10-02T00:47:01.718Z,1.10
2022-10-02T00:50:04.009Z,1.30
2022-10-02T00:53:01.490Z,1.00
2022-10-02T00:55:55.294Z,1.30
2022-10-02T00:58:52.850Z,1.20
2022-10-02T01:01:52.358Z,1.70
2022-10-02T01:04:35.468Z,1.60
2022-10-02T01:07:10.347Z,1.80
2022-10-02T01:09:39.575Z,1.90
2022-10-02T01:12:08.528Z,1.70
2022-10-02T01:14:39.645Z,2.30
2022-10-02T01:17:22.978Z,1.60
2022-10-02T01:19:52.069Z,1.70
2022-10-02T01:22:37.386Z,1.90
2022-10-02T01:25:08.163Z,1.80
2022-10-02T01:27:39.402Z,2.00
2022-10-02T01:30:12.418Z,1.90
2022-10-02T01:32:50.117Z,1.50
2022-10-02T01:35:21.174Z,1.60
2022-10-02T01:37:52.016Z,1.60
2022-10-02T01:40:32.962Z,1.70
2022-10-02T01:43:14.719Z,1.80
2022-10-02T01:46:10.654Z,1.60
2022-10-02T01:49:25.348Z,1.60
2022-10-02T01:52:44.121Z,1.90
2022-10-02T01:55:36.416Z,1.90
2022-10-02T01:58:30.744Z,2.00
2022-10-02T02:01:44.443Z,2.10
2022-10-02T02:04:48.408Z,1.50
2022-10-02T02:07:34.480Z,1.40
2022-10-02T02:10:22.589Z,1.90
2022-10-02T02:13:30.485Z,1.80
2022-10-02T02:16:18.040Z,2.00
2022-10-02T02:18:54.888Z,1.60
2022-10-02T02:21:35.505Z,1.80
2022-10-02T02:24:11.264Z,1.80
2022-10-02T02:26:43.809Z,1.70
2022-10-02T02:29:14.203Z,1.80
2022-10-02T02:31:51.662Z,2.20
2022-10-02T02:34:47.797Z,1.50
2022-10-02T02:37:20.448Z,2.00
2022-10-02T02:40:24.720Z,1.50
2022-10-02T02:43:10.919Z,1.30
2022-10-02T02:45:54.824Z,1.20
2022-10-02T02:48:52.575Z,1.40
2022-10-02T02:51:31.247Z,1.10
2022-10-02T02:54:07.797Z,1.60
2022-10-02T02:56:37.397Z,1.30
2022-10-02T02:59:11.817Z,1.00
2022-10-02T03:01:41.825Z,1.10
2022-10-02T03:04:14.845Z,1.00
2022-10-02T03:09:19.376Z,1.10
2022-10-02T03:12:15.339Z,1.00
2022-10-02T03:14:55.418Z,1.10
2022-10-02T03:18:01.450Z,1.20
2022-10-02T03:21:11.201Z,1.10
2022-10-02T03:23:51.343Z,1.10
2022-10-02T03:26:46.736Z,1.10
2022-10-02T03:29:35.307Z,1.20
2022-10-02T03:32:07.759Z,1.20
2022-10-02T03:34:37.280Z,1.30
2022-10-02T03:37:06.413Z,1.50
2022-10-02T03:39:34.519Z,1.50
2022-10-02T03:42:02.622Z,1.40
2022-10-02T03:44:30.815Z,2.00
2022-10-02T03:46:58.905Z,1.40
2022-10-02T03:49:26.971Z,1.50
2022-10-02T03:51:55.109Z,1.70
2022-10-02T03:54:23.667Z,1.80
2022-10-02T03:56:54.534Z,1.50
2022-10-02T03:59:39.408Z,1.70
2022-10-02T04:02:27.517Z,2.00
2022-10-02T04:05:08.219Z,1.60
2022-10-02T04:07:42.191Z,1.90
2022-10-02T04:10:25.910Z,2.00
2022-10-02T04:13:11.955Z,1.90
2022-10-02T04:16:24.315Z,1.80
2022-10-02T04:19:21.711Z,2.40
2022-10-02T04:22:18.468Z,2.10
2022-10-02T04:25:03.064Z,2.10
2022-10-02T04:27:44.609Z,1.90
2022-10-02T04:30:17.134Z,2.30
2022-10-02T04:32:46.088Z,2.30
2022-10-02T04:36:12.862Z,2.30
2022-10-02T04:39:25.343Z,2.50
2022-10-02T04:42:18.745Z,2.40
2022-10-02T04:45:17.544Z,2.60
2022-10-02T04:48:26.261Z,2.80
2022-10-02T04:51:18.162Z,3.10
2022-10-02T04:53:46.289Z,2.50
2022-10-02T04:57:06.341Z,2.70
2022-10-02T05:00:11.488Z,2.90
2022-10-02T05:03:20.618Z,2.50
2022-10-02T05:06:09.668Z,2.60
2022-10-02T05:08:42.530Z,2.60
2022-10-02T05:11:35.450Z,3.10
2022-10-02T05:14:24.815Z,2.20
2022-10-02T05:18:08.902Z,2.40
2022-10-02T05:21:04.207Z,2.00
2022-10-02T05:23:57.942Z,2.10
2022-10-02T05:27:16.367Z,2.80
2022-10-02T05:30:11.253Z,2.60
2022-10-02T05:32:48.249Z,2.30
2022-10-02T05:35:50.280Z,2.50
2022-10-02T05:38:20.987Z,2.30
2022-10-02T05:41:19.235Z,3.00
2022-10-02T05:44:14.682Z,2.30
2022-10-02T05:46:57.452Z,2.70
2022-10-02T05:49:36.373Z,2.50
2022-10-02T05:52:13.897Z,2.80
2022-10-02T05:55:03.972Z,2.50
2022-10-02T05:57:41.557Z,2.50
2022-10-02T06:00:40.219Z,2.30
2022-10-02T06:03:43.853Z,2.40
2022-10-02T06:06:43.718Z,2.00
2022-10-02T06:09:21.733Z,2.60
2022-10-02T06:12:31.353Z,2.50
2022-10-02T06:15:33.440Z,2.50
2022-10-02T06:18:12.139Z,2.70
2022-10-02T06:20:44.402Z,2.40
2022-10-02T06:23:27.044Z,2.90
2022-10-02T06:26:09.660Z,2.50
2022-10-02T06:29:18.312Z,2.40
2022-10-02T06:32:02.225Z,2.10
2022-10-02T06:34:30.517Z,2.00
2022-10-02T06:37:42.805Z,1.80
2022-10-02T06:40:19.612Z,1.50
2022-10-02T06:43:09.063Z,1.60
2022-10-02T06:45:49.238Z,1.70
2022-10-02T06:48:26.454Z,1.50
2022-10-02T06:51:03.732Z,1.70
2022-10-02T06:54:19.342Z,1.90
2022-10-02T06:57:19.500Z,2.50
2022-10-02T07:00:10.471Z,2.20
2022-10-02T07:03:32.679Z,1.90
2022-10-02T07:06:12.771Z,1.50
2022-10-02T07:09:07.099Z,2.00
2022-10-02T07:12:08.559Z,2.10
2022-10-02T07:14:55.148Z,2.00
2022-10-02T07:17:34.094Z,1.60
2022-10-02T07:20:29.797Z,2.10
2022-10-02T07:23:35.092Z,2.00
2022-10-02T07:26:42.747Z,1.90
2022-10-02T07:29:42.959Z,1.50
2022-10-02T07:32:49.292Z,2.20
2022-10-02T07:35:49.501Z,1.50
2022-10-02T07:38:54.675Z,1.60
2022-10-02T07:42:00.725Z,1.50
2022-10-02T07:44:34.655Z,1.20
2022-10-02T07:47:25.649Z,1.60
2022-10-02T07:50:12.357Z,1.50
2022-10-02T07:52:49.029Z,1.70
2022-10-02T07:55:22.596Z,1.60
2022-10-02T07:58:03.463Z,1.50
2022-10-02T08:00:39.624Z,1.30
2022-10-02T08:03:18.494Z,1.20
2022-10-02T08:05:54.922Z,1.50
2022-10-02T08:08:57.087Z,1.20
2022-10-02T08:12:14.295Z,0.90
2022-10-02T08:14:46.544Z,1.10
2022-10-02T08:17:30.262Z,1.00
2022-10-02T08:20:28.541Z,1.20
2022-10-02T08:23:23.395Z,1.20
2022-10-02T08:26:21.103Z,1.40
2022-10-02T08:29:08.267Z,1.30
2022-10-02T08:31:36.543Z,1.20
2022-10-02T08:34:17.401Z,1.30
2022-10-02T08:36:59.512Z,1.30
2022-10-02T08:39:44.265Z,1.30
2022-10-02T08:42:26.139Z,1.30
2022-10-02T08:45:15.358Z,1.40
2022-10-02T08:48:23.440Z,1.30
2022-10-02T08:51:54.695Z,1.30
2022-10-02T08:55:07.074Z,1.50
2022-10-02T08:58:13.060Z,1.90
2022-10-02T09:01:16.728Z,1.70
2022-10-02T09:07:28.077Z,1.80
2022-10-02T09:10:46.223Z,2.20
2022-10-02T09:13:22.277Z,1.90
2022-10-02T09:16:15.311Z,1.70
2022-10-02T09:18:49.404Z,1.60
2022-10-02T09:21:32.160Z,2.00
2022-10-02T09:24:43.375Z,2.50
2022-10-02T09:27:49.464Z,5.50
2022-10-02T09:30:36.026Z,2.60
2022-10-02T09:33:30.421Z,4.70
2022-10-02T09:36:49.363Z,2.30
2022-10-02T09:40:00.978Z,2.50
2022-10-02T09:42:49.739Z,1.50
2022-10-02T09:45:24.231Z,1.50
2022-10-02T09:48:18.459Z,1.60
2022-10-02T09:51:05.547Z,1.60
2022-10-02T09:54:24.462Z,1.30
2022-10-02T09:57:07.263Z,1.40
2022-10-02T10:00:06.039Z,1.10
2022-10-02T10:03:28.607Z,1.20
2022-10-02T10:06:02.731Z,1.40
2022-10-02T10:08:55.346Z,1.10
2022-10-02T10:11:52.310Z,1.00
2022-10-02T10:14:36.019Z,1.10
2022-10-02T10:17:22.045Z,1.20
2022-10-02T10:20:27.322Z,1.00
2022-10-02T10:23:09.335Z,1.00
2022-10-02T10:25:43.173Z,1.10
2022-10-02T10:28:59.112Z,1.00
2022-10-02T10:31:48.434Z,1.10
2022-10-02T10:34:46.162Z,1.00
2022-10-02T10:38:21.542Z,0.70
2022-10-02T10:41:20.167Z,0.80
2022-10-02T10:44:22.333Z,1.60
2022-10-02T10:47:28.446Z,1.30
2022-10-02T10:50:54.256Z,0.90
2022-10-02T10:54:08.684Z,0.80
2022-10-02T10:56:44.744Z,0.80
2022-10-02T10:59:55.324Z,1.10
2022-10-02T11:02:44.623Z,0.80
2022-10-02T11:05:37.227Z,1.20
2022-10-02T11:08:31.065Z,1.50
2022-10-02T11:11:33.252Z,1.00
2022-10-02T11:14:23.595Z,1.10
2022-10-02T11:17:16.269Z,1.00
2022-10-02T11:20:20.431Z,1.30
2022-10-02T11:23:25.091Z,1.00
2022-10-02T11:26:26.433Z,0.80
2022-10-02T11:29:22.195Z,1.10
2022-10-02T11:31:59.690Z,0.90
2022-10-02T11:35:08.602Z,0.90
2022-10-02T11:38:08.286Z,1.30
2022-10-02T11:40:59.523Z,0.90
2022-10-02T11:43:44.334Z,1.10
2022-10-02T11:46:55.038Z,1.10
2022-10-02T11:50:16.232Z,1.10
2022-10-02T11:53:08.648Z,0.90
2022-10-02T11:56:11.796Z,9.20
2022-10-02T11:59:01.307Z,12.60
2022-10-02T12:02:16.693Z,26.90
2022-10-02T12:05:18.663Z,11.40
2022-10-02T12:08:19.279Z,3.50
2022-10-02T12:11:22.673Z,6.20
2022-10-02T12:14:14.602Z,2.60
2022-10-02T12:17:01.296Z,2.00
2022-10-02T12:20:16.544Z,1.50
2022-10-02T12:23:41.864Z,1.20
2022-10-02T12:26:53.406Z,1.10
2022-10-02T12:29:41.737Z,1.50
2022-10-02T12:32:29.746Z,1.60
2022-10-02T12:35:09.723Z,2.60
2022-10-02T12:37:58.646Z,2.20
2022-10-02T12:41:07.527Z,2.00
2022-10-02T12:44:17.156Z,2.50
2022-10-02T12:47:15.586Z,5.70
2022-10-02T12:50:08.509Z,5.30
2022-10-02T12:53:13.831Z,12.20
2022-10-02T12:56:06.710Z,13.40
2022-10-02T12:58:46.883Z,26.70
2022-10-02T13:01:43.234Z,7.70
2022-10-02T13:04:58.192Z,9.10
2022-10-02T13:07:58.312Z,13.20
2022-10-02T13:10:38.858Z,10.40
2022-10-02T13:13:55.003Z,4.00
2022-10-02T13:16:44.943Z,1.70
2022-10-02T13:19:47.919Z,3.20
2022-10-02T13:22:42.760Z,1.70
2022-10-02T13:25:42.866Z,1.80
2022-10-02T13:28:36.526Z,1.30
2022-10-02T13:31:36.672Z,3.20
2022-10-02T13:34:38.454Z,1.10
2022-10-02T13:37:24.264Z,1.70
2022-10-02T13:40:24.859Z,1.30
2022-10-02T13:42:58.728Z,1.30
2022-10-02T13:45:47.675Z,1.00
2022-10-02T13:48:23.073Z,1.30
2022-10-02T13:51:29.049Z,1.50
2022-10-02T13:54:33.746Z,1.10
2022-10-02T13:57:29.808Z,0.90
2022-10-02T14:00:03.814Z,1.10
2022-10-02T14:02:50.705Z,1.10
2022-10-02T14:05:57.003Z,1.20
2022-10-02T14:09:02.320Z,0.80
2022-10-02T14:11:45.297Z,1.10
2022-10-02T14:14:56.336Z,0.80
2022-10-02T14:18:06.724Z,0.70
2022-10-02T14:21:09.053Z,2.90
2022-10-02T14:24:16.752Z,3.10
2022-10-02T14:26:53.471Z,2.70
2022-10-02T14:29:34.037Z,2.00
2022-10-02T14:32:08.683Z,1.90
2022-10-02T14:35:17.009Z,1.20
2022-10-02T14:38:13.014Z,1.00
2022-10-02T14:40:58.257Z,0.80
2022-10-02T14:44:06.642Z,1.30
2022-10-02T14:47:10.933Z,1.00
2022-10-02T14:49:55.247Z,1.80
2022-10-02T14:53:11.499Z,1.10
2022-10-02T14:56:10.067Z,0.80
2022-10-02T14:58:53.404Z,2.50
2022-10-02T15:01:23.948Z,1.00
2022-10-02T15:04:43.342Z,0.90
2022-10-02T15:07:15.362Z,0.80
2022-10-02T15:10:15.364Z,0.80
2022-10-02T15:12:55.660Z,0.70
2022-10-02T15:16:11.678Z,0.90
2022-10-02T15:18:50.258Z,0.80
2022-10-02T15:21:42.627Z,0.80
2022-10-02T15:24:33.363Z,0.70
2022-10-02T15:27:29.442Z,1.10
2022-10-02T15:30:24.147Z,0.80
2022-10-02T15:33:10.939Z,1.10
2022-10-02T15:36:10.353Z,1.00
2022-10-02T15:38:38.415Z,1.00
2022-10-02T15:41:12.400Z,0.90
2022-10-02T15:44:00.761Z,1.00
2022-10-02T15:46:41.918Z,1.00
2022-10-02T15:49:31.138Z,0.90
2022-10-02T15:52:20.189Z,0.90
2022-10-02T15:54:59.280Z,1.30
2022-10-02T15:57:38.326Z,0.80
2022-10-02T16:00:16.996Z,1.60
2022-10-02T16:03:03.285Z,1.50
2022-10-02T16:05:59.348Z,1.00
2022-10-02T16:08:46.404Z,1.20
2022-10-02T16:12:02.341Z,1.10
2022-10-02T16:14:45.326Z,1.10
2022-10-02T16:17:32.444Z,1.10
2022-10-02T16:20:24.573Z,1.20
2022-10-02T16:23:20.040Z,1.40
2022-10-02T16:25:58.509Z,1.80
2022-10-02T16:28:50.125Z,1.60
2022-10-02T16:31:33.495Z,1.90
2022-10-02T16:34:32.464Z,2.00
2022-10-02T16:37:27.362Z,2.20
2022-10-02T16:40:22.728Z,2.30
2022-10-02T16:43:44.756Z,2.50
2022-10-02T16:46:37.066Z,2.60
2022-10-02T16:49:29.189Z,2.00
2022-10-02T16:52:03.137Z,2.70
2022-10-02T16:54:47.149Z,2.80
2022-10-02T16:57:18.229Z,2.50
2022-10-02T17:00:00.902Z,2.70
2022-10-02T17:02:38.073Z,2.30
2022-10-02T17:05:35.504Z,2.20
2022-10-02T17:08:10.604Z,2.00
2022-10-02T17:11:10.560Z,1.90
2022-10-02T17:14:05.349Z,2.50
2022-10-02T17:16:43.701Z,2.80
2022-10-02T17:19:33.523Z,3.40
2022-10-02T17:22:09.414Z,3.60
2022-10-02T17:25:15.929Z,3.30
2022-10-02T17:28:31.181Z,3.50
2022-10-02T17:31:24.667Z,3.10
2022-10-02T17:36:49.421Z,3.40
2022-10-02T17:39:27.205Z,3.60
2022-10-02T17:42:25.186Z,3.50
2022-10-02T17:45:26.541Z,3.10
2022-10-02T17:48:16.590Z,2.90
2022-10-02T17:51:50.890Z,3.20
2022-10-02T17:54:54.538Z,2.80
2022-10-02T17:58:02.956Z,2.20
2022-10-02T18:00:38.233Z,2.60
2022-10-02T18:03:12.062Z,2.30
2022-10-02T18:06:19.956Z,2.70
2022-10-02T18:09:12.073Z,2.50
2022-10-02T18:12:21.279Z,2.40
2022-10-02T18:15:20.820Z,2.50
2022-10-02T18:17:58.996Z,2.50
2022-10-02T18:20:34.856Z,2.50
2022-10-02T18:23:39.794Z,2.50
2022-10-02T18:26:19.218Z,2.20
2022-10-02T18:28:51.302Z,2.40
2022-10-02T18:32:07.071Z,2.50
2022-10-02T18:35:28.505Z,1.90
2022-10-02T18:38:45.076Z,2.40
2022-10-02T18:41:13.132Z,1.90
2022-10-02T18:44:02.318Z,1.90
2022-10-02T18:47:07.318Z,2.20
2022-10-02T18:50:00.527Z,1.60
2022-10-02T18:52:37.359Z,1.60
2022-10-02T18:55:20.252Z,2.00
2022-10-02T18:58:08.097Z,1.90
2022-10-02T19:01:05.278Z,2.00
2022-10-02T19:04:34.571Z,2.20
2022-10-02T19:07:06.553Z,2.70
2022-10-02T19:09:34.697Z,2.50
2022-10-02T19:12:23.207Z,3.00
2022-10-02T19:14:56.256Z,2.80
2022-10-02T19:17:32.680Z,2.70
2022-10-02T19:20:14.208Z,2.70
2022-10-02T19:22:42.788Z,3.30
2022-10-02T19:25:19.662Z,3.50
2022-10-02T19:27:54.753Z,4.00
2022-10-02T19:30:31.812Z,4.20
2022-10-02T19:33:08.859Z,4.90
2022-10-02T19:35:44.148Z,5.40
2022-10-02T19:38:34.425Z,6.60
2022-10-02T19:41:10.893Z,6.40
2022-10-02T19:44:06.784Z,6.00
2022-10-02T19:46:43.226Z,6.10
2022-10-02T19:49:39.574Z,5.70
2022-10-02T19:52:55.111Z,5.60
2022-10-02T19:55:27.396Z,5.70
2022-10-02T19:58:07.812Z,5.60
2022-10-02T20:00:38.763Z,4.70
2022-10-02T20:03:17.532Z,5.50
2022-10-02T20:05:49.572Z,4.60
2022-10-02T20:08:24.075Z,4.80
2022-10-02T20:11:40.336Z,5.10
2022-10-02T20:14:29.082Z,5.00
2022-10-02T20:17:09.319Z,6.10
2022-10-02T20:19:59.502Z,5.40
2022-10-02T20:22:35.815Z,5.00
2022-10-02T20:25:31.503Z,5.40
2022-10-02T20:29:01.616Z,6.10
2022-10-02T20:31:58.479Z,5.30
2022-10-02T20:34:39.415Z,5.70
2022-10-02T20:37:19.901Z,5.70
2022-10-02T20:40:02.690Z,4.90
2022-10-02T20:42:49.914Z,5.20
2022-10-02T20:45:18.370Z,5.10
2022-10-02T20:48:49.153Z,4.90
2022-10-02T20:51:48.192Z,4.40
2022-10-02T20:55:05.813Z,4.70
2022-10-02T20:58:11.010Z,4.30
2022-10-02T21:01:21.937Z,4.70
2022-10-02T21:04:08.208Z,4.60
2022-10-02T21:07:11.814Z,5.90
2022-10-02T21:10:25.017Z,4.80
2022-10-02T21:13:24.443Z,6.20
2022-10-02T21:16:10.787Z,5.50
2022-10-02T21:19:23.813Z,4.80
2022-10-02T21:22:26.506Z,4.90
2022-10-02T21:24:54.542Z,4.60
2022-10-02T21:28:28.484Z,5.60
2022-10-02T21:31:24.282Z,5.10
2022-10-02T21:34:19.892Z,4.60
2022-10-02T21:36:58.570Z,4.70
2022-10-02T21:40:06.709Z,5.10
2022-10-02T21:43:02.726Z,3.70
2022-10-02T21:46:04.790Z,4.50
2022-10-02T21:48:54.188Z,4.80
2022-10-02T21:52:02.412Z,4.10
2022-10-02T21:54:58.466Z,4.50
2022-10-02T21:58:22.558Z,4.70
2022-10-02T22:01:21.372Z,4.80
2022-10-02T22:04:03.170Z,4.40
2022-10-02T22:06:36.490Z,4.90
2022-10-02T22:09:16.216Z,4.40
2022-10-02T22:11:57.497Z,4.20
2022-10-02T22:15:00.019Z,4.50
2022-10-02T22:17:39.662Z,4.60
2022-10-02T22:20:34.159Z,4.20
2022-10-02T22:23:35.776Z,4.70
2022-10-02T22:26:31.645Z,4.60
2022-10-02T22:29:35.482Z,4.80
2022-10-02T22:35:17.659Z,3.70
2022-10-02T22:38:04.741Z,4.50
2022-10-02T22:40:51.466Z,4.00
2022-10-02T22:44:03.711Z,4.20
2022-10-02T22:46:31.740Z,4.20
2022-10-02T22:49:27.939Z,5.40
2022-10-02T22:52:52.240Z,4.80
2022-10-02T22:55:38.705Z,4.40
2022-10-02T22:58:18.983Z,3.90
2022-10-02T23:01:16.452Z,4.00
2022-10-02T23:04:10.469Z,4.80
2022-10-02T23:06:52.807Z,3.90
2022-10-02T23:09:56.598Z,4.10
2022-10-02T23:15:42.740Z,4.10
2022-10-02T23:18:19.725Z,3.90
2022-10-02T23:21:04.678Z,4.00
2022-10-02T23:23:52.732Z,3.80
2022-10-02T23:26:43.587Z,3.40
2022-10-02T23:30:03.935Z,4.70
2022-10-02T23:32:59.677Z,4.00
2022-10-02T23:35:30.165Z,4.60
2022-10-02T23:38:07.711Z,4.60
2022-10-02T23:41:28.175Z,3.40
2022-10-02T23:44:20.725Z,3.40
2022-10-02T23:46:49.072Z,3.30
2022-10-02T23:49:21.822Z,3.60
2022-10-02T23:51:53.318Z,2.80
2022-10-02T23:54:43.420Z,2.40
2022-10-02T23:57:39.972Z,2.40
